Time;durP1;ratioP1;P1;durP2;ratioP2;P2;SDS_P1;SDS_P2;PMS_P1;PMS_P2;Temp;Humidity;BMP_temperature;BMP_pressure;BME280_temperature;BME280_humidity;BME280_pressure;Samples;Min_cycle;Max_cycle;Signal;HPM_P1;HPM_P2
2023/01/01 00:01:11;;;;;;;9.70;5.28;;;13.80;99.90;;;;;;5017285;28;20183;-68
2023/01/01 00:03:37;;;;;;;;;;;13.40;99.90;;;;;;5017833;28;20493;-68
2023/01/01 00:06:10;;;;;;;8.55;4.80;;;13.30;99.90;;;;;;5000616;28;19928;-68
2023/01/01 00:08:36;;;;;;;14.45;7.03;;;13.30;99.90;;;;;;5016871;28;20045;-68
2023/01/01 00:11:06;;;;;;;9.23;5.93;;;13.30;99.90;;;;;;5035121;28;20048;-71
2023/01/01 00:13:34;;;;;;;8.60;5.60;;;13.20;99.90;;;;;;5017348;28;20473;-68
2023/01/01 00:16:13;;;;;;;10.23;6.75;;;13.20;99.90;;;;;;5035066;28;20064;-68
2023/01/01 00:18:39;;;;;;;13.75;6.30;;;13.10;99.90;;;;;;5034665;28;20118;-68
2023/01/01 00:21:08;;;;;;;16.10;6.43;;;13.00;99.90;;;;;;5017145;28;20041;-69
2023/01/01 00:23:34;;;;;;;17.52;7.20;;;13.00;99.90;;;;;;5034837;28;20396;-69
2023/01/01 00:25:59;;;;;;;12.05;6.70;;;12.90;99.90;;;;;;5017200;28;20113;-68
2023/01/01 00:28:25;;;;;;;17.63;8.25;;;12.80;99.90;;;;;;5016965;28;20049;-68
2023/01/01 00:30:51;;;;;;;13.27;9.25;;;12.80;99.90;;;;;;5016752;28;20096;-68
2023/01/01 00:33:16;;;;;;;17.63;8.25;;;12.70;99.90;;;;;;5016743;28;20044;-68
2023/01/01 00:35:42;;;;;;;24.63;9.35;;;12.70;99.90;;;;;;5017067;28;20076;-69
2023/01/01 00:38:07;;;;;;;19.73;10.38;;;12.60;99.90;;;;;;5034350;28;20033;-68
2023/01/01 00:40:33;;;;;;;20.40;11.73;;;13.40;99.90;;;;;;5017030;28;20037;-68
2023/01/01 00:42:58;;;;;;;23.30;12.52;;;12.60;99.90;;;;;;5016781;28;20405;-68
2023/01/01 00:45:24;;;;;;;19.20;11.68;;;13.30;99.90;;;;;;5034543;28;20049;-68
2023/01/01 00:47:52;;;;;;;17.25;11.73;;;12.50;99.90;;;;;;5034474;28;20476;-68
2023/01/01 00:50:18;;;;;;;15.52;10.18;;;12.60;99.90;;;;;;5034343;28;20045;-69
2023/01/01 00:52:44;;;;;;;35.25;22.40;;;12.60;99.90;;;;;;5034106;28;20029;-69
2023/01/01 00:55:10;;;;;;;20.85;12.20;;;12.60;99.90;;;;;;4999953;28;20507;-69
2023/01/01 00:57:36;;;;;;;18.13;10.85;;;12.60;99.90;;;;;;5034003;28;20120;-69
2023/01/01 01:00:03;;;;;;;17.42;10.95;;;12.60;99.90;;;;;;5034198;28;20547;-69
2023/01/01 01:02:28;;;;;;;24.98;11.48;;;12.60;99.90;;;;;;5034228;28;20438;-69
2023/01/01 01:04:54;;;;;;;21.27;10.52;;;12.60;99.90;;;;;;5033403;28;20052;-69
2023/01/01 01:07:19;;;;;;;18.67;8.20;;;12.70;99.90;;;;;;5034072;28;20539;-69
2023/01/01 01:09:45;;;;;;;13.57;8.35;;;12.80;99.90;;;;;;5015992;28;20046;-69
2023/01/01 01:12:11;;;;;;;15.25;7.95;;;12.80;99.90;;;;;;5033611;28;20076;-69
2023/01/01 01:14:36;;;;;;;15.52;7.95;;;13.10;99.90;;;;;;5033574;28;20044;-69
2023/01/01 01:17:02;;;;;;;12.93;7.65;;;13.00;99.90;;;;;;5015956;28;20053;-70
2023/01/01 01:19:27;;;;;;;16.58;8.98;;;13.00;99.90;;;;;;5033865;28;20072;-70
2023/01/01 01:21:53;;;;;;;16.23;7.70;;;13.30;99.90;;;;;;5033469;28;20503;-69
2023/01/01 01:24:18;;;;;;;16.42;9.35;;;13.10;99.90;;;;;;5033685;28;20100;-69
2023/01/01 01:26:44;;;;;;;18.30;8.98;;;13.10;99.90;;;;;;5015833;28;20045;-69
2023/01/01 01:29:10;;;;;;;12.15;7.05;;;13.10;99.90;;;;;;5033516;28;20045;-69
2023/01/01 01:31:35;;;;;;;16.88;8.93;;;13.00;99.90;;;;;;5015642;28;20037;-70
2023/01/01 01:34:01;;;;;;;17.00;8.95;;;12.90;99.90;;;;;;5033648;28;20087;-70
2023/01/01 01:36:27;;;;;;;12.27;6.55;;;12.90;99.90;;;;;;5015587;28;20033;-70
2023/01/01 01:38:53;;;;;;;15.75;8.40;;;13.00;99.90;;;;;;5015554;28;20049;-71
2023/01/01 01:41:22;;;;;;;16.45;8.82;;;13.00;99.90;;;;;;5015474;28;20045;-71
2023/01/01 01:43:52;;;;;;;18.95;9.18;;;13.00;99.90;;;;;;5033451;28;20480;-70
2023/01/01 01:46:26;;;;;;;15.35;8.93;;;13.60;99.90;;;;;;5015537;28;20057;-71
2023/01/01 01:48:53;;;;;;;15.38;10.50;;;12.90;99.90;;;;;;5015319;28;20073;-70
2023/01/01 01:51:26;;;;;;;24.50;10.00;;;13.00;99.90;;;;;;5015294;28;20037;-71
2023/01/01 01:53:56;;;;;;;19.15;9.82;;;12.90;99.90;;;;;;5033032;28;20515;-72
2023/01/01 01:56:41;;;;;;;19.70;8.45;;;12.90;99.90;;;;;;5015266;28;20037;-72
2023/01/01 01:59:07;;;;;;;18.05;10.20;;;12.90;99.90;;;;;;5015220;28;20043;-71
2023/01/01 02:01:33;;;;;;;17.13;8.68;;;13.00;99.90;;;;;;5015231;28;20072;-70
2023/01/01 02:04:00;;;;;;;15.27;8.63;;;13.00;99.90;;;;;;5015361;28;20468;-70
2023/01/01 02:06:28;;;;;;;16.90;8.50;;;13.00;99.90;;;;;;5011842;28;20112;-70
2023/01/01 02:08:56;;;;;;;15.88;8.80;;;13.00;99.90;;;;;;5013310;28;20065;-70
2023/01/01 02:11:22;;;;;;;13.55;8.45;;;13.00;99.90;;;;;;5011831;28;20069;-70
2023/01/01 02:13:49;;;;;;;16.75;7.50;;;13.00;99.90;;;;;;5012131;28;20073;-70
2023/01/01 02:16:26;;;;;;;14.35;7.97;;;13.00;99.90;;;;;;5011015;28;20046;-69
2023/01/01 02:19:06;;;;;;;14.05;7.10;;;13.00;99.90;;;;;;5011796;28;20042;-70
2023/01/01 02:21:34;;;;;;;13.70;7.72;;;13.00;99.90;;;;;;5011974;28;20129;-70
2023/01/01 02:24:17;;;;;;;19.00;6.82;;;13.20;99.90;;;;;;5013020;28;20034;-70
2023/01/01 02:27:04;;;;;;;18.25;8.15;;;13.10;99.90;;;;;;5012005;28;20038;-69
2023/01/01 02:30:00;;;;;;;13.82;7.30;;;13.10;99.90;;;;;;5011646;28;20050;-70
2023/01/01 02:32:58;;;;;;;11.48;6.53;;;13.10;99.90;;;;;;5007038;28;20516;-70
2023/01/01 02:35:36;;;;;;;11.93;6.68;;;13.10;99.90;;;;;;5008918;28;20108;-70
2023/01/01 02:38:22;;;;;;;11.45;5.63;;;13.20;99.90;;;;;;5011905;28;20038;-70
2023/01/01 02:41:14;;;;;;;12.20;5.22;;;13.20;99.90;;;;;;5011721;28;20046;-70
2023/01/01 02:43:41;;;;;;;14.18;5.80;;;13.30;99.90;;;;;;4995518;28;20049;-70
2023/01/01 02:46:10;;;;;;;8.18;4.53;;;13.30;99.90;;;;;;5013145;28;20073;-70
2023/01/01 02:48:38;;;;;;;6.25;4.15;;;14.10;99.90;;;;;;5011696;28;20512;-70
2023/01/01 02:51:19;;;;;;;13.80;5.25;;;13.40;99.90;;;;;;5011537;28;20049;-70
2023/01/01 02:54:12;;;;;;;8.18;4.40;;;13.30;99.90;;;;;;5011534;28;20057;-70
2023/01/01 02:57:02;;;;;;;9.98;5.30;;;13.30;99.90;;;;;;5011753;28;20049;-70
2023/01/01 03:02:33;;;;;;;10.55;3.20;;;13.40;99.90;;;;;;5011373;28;20053;-70
2023/01/01 03:05:11;;;;;;;9.60;4.18;;;13.40;99.90;;;;;;5011233;28;20069;-70
2023/01/01 03:07:55;;;;;;;8.10;3.67;;;13.50;99.90;;;;;;5012840;28;20125;-70
2023/01/01 03:10:44;;;;;;;8.90;4.60;;;13.40;99.90;;;;;;5011279;28;20453;-70
2023/01/01 03:13:15;;;;;;;15.18;4.28;;;13.50;99.90;;;;;;5011300;28;20111;-70
2023/01/01 03:15:54;;;;;;;7.60;3.00;;;13.40;99.90;;;;;;5011265;28;20076;-70
2023/01/01 03:18:49;;;;;;;8.18;3.92;;;13.50;99.90;;;;;;5012484;28;20034;-70
2023/01/01 03:21:21;;;;;;;6.55;3.78;;;13.40;99.90;;;;;;5011576;28;20053;-70
2023/01/01 03:23:49;;;;;;;9.57;3.65;;;13.40;99.90;;;;;;5011306;28;20456;-70
2023/01/01 03:26:18;;;;;;;7.78;2.92;;;13.50;99.90;;;;;;4994851;28;20045;-71
2023/01/01 03:28:55;;;;;;;6.13;2.38;;;13.60;99.90;;;;;;5013723;28;20057;-71
2023/01/01 03:31:24;;;;;;;3.47;2.22;;;13.60;99.90;;;;;;5015019;28;20076;-70
2023/01/01 03:34:04;;;;;;;6.25;1.42;;;13.70;99.90;;;;;;5016163;28;20038;-71
2023/01/01 03:36:43;;;;;;;5.32;2.40;;;13.80;99.90;;;;;;5014587;28;20038;-70
2023/01/01 03:39:22;;;;;;;4.03;2.05;;;13.80;99.90;;;;;;5014463;28;20046;-70
2023/01/01 03:42:09;;;;;;;2.83;1.40;;;13.80;99.90;;;;;;5016032;28;20120;-70
2023/01/01 03:44:43;;;;;;;2.40;1.35;;;13.80;99.90;;;;;;5015966;28;20042;-70
2023/01/01 03:47:08;;;;;;;4.60;1.75;;;13.80;99.90;;;;;;5014628;28;20541;-71
2023/01/01 03:49:34;;;;;;;4.22;2.38;;;14.00;99.90;;;;;;5015859;28;20049;-70
2023/01/01 03:52:07;;;;;;;6.93;1.73;;;13.80;99.90;;;;;;5015820;28;20505;-70
2023/01/01 03:54:49;;;;;;;7.45;1.55;;;13.80;99.90;;;;;;5014207;28;20383;-70
2023/01/01 03:57:21;;;;;;;6.15;2.15;;;13.80;99.90;;;;;;5014461;28;20121;-70
2023/01/01 03:59:58;;;;;;;;;;;13.80;99.90;;;;;;5014820;28;20037;-70
2023/01/01 04:02:30;;;;;;;3.42;1.50;;;13.90;99.90;;;;;;5014121;28;19917;-71
2023/01/01 04:04:58;;;;;;;7.30;1.23;;;13.90;99.30;;;;;;5019585;28;20052;-70
2023/01/01 04:07:24;;;;;;;3.92;1.75;;;13.90;98.90;;;;;;5017235;28;20124;-71
2023/01/01 04:09:52;;;;;;;5.28;1.92;;;14.10;99.70;;;;;;5017341;28;20120;-72
2023/01/01 04:12:19;;;;;;;5.03;1.30;;;13.90;98.80;;;;;;5017378;28;20076;-71
2023/01/01 04:14:44;;;;;;;5.97;1.73;;;13.90;99.80;;;;;;5035138;28;20041;-71
2023/01/01 04:17:11;;;;;;;3.47;1.15;;;13.90;98.40;;;;;;5000728;28;20044;-70
2023/01/01 04:19:37;;;;;;;4.72;1.80;;;13.80;99.10;;;;;;5017068;28;20045;-70
2023/01/01 04:22:03;;;;;;;5.70;1.70;;;13.80;98.20;;;;;;5016982;28;20041;-71
2023/01/01 04:24:29;;;;;;;6.50;1.02;;;13.90;97.40;;;;;;5016971;28;20049;-70
2023/01/01 04:26:55;;;;;;;3.97;1.40;;;13.90;98.20;;;;;;5017170;28;20132;-70
2023/01/01 04:29:21;;;;;;;6.90;1.30;;;13.90;97.70;;;;;;5016818;28;20057;-71
2023/01/01 04:31:47;;;;;;;5.47;1.25;;;14.10;97.80;;;;;;5034954;28;20087;-71
2023/01/01 04:34:13;;;;;;;4.22;1.63;;;13.80;97.50;;;;;;5017068;28;20378;-71
2023/01/01 04:36:39;;;;;;;1.55;0.80;;;13.80;96.50;;;;;;5016701;28;20412;-71
2023/01/01 04:39:05;;;;;;;1.65;0.88;;;14.30;96.90;;;;;;5015919;28;20045;-71
2023/01/01 04:41:31;;;;;;;2.97;1.00;;;13.80;99.90;;;;;;5016655;28;20037;-70
2023/01/01 04:43:57;;;;;;;2.50;1.33;;;14.40;99.90;;;;;;5034321;28;20037;-71
2023/01/01 04:46:23;;;;;;;4.55;1.00;;;13.70;99.90;;;;;;5016553;28;20038;-71
2023/01/01 04:48:49;;;;;;;1.75;0.98;;;13.50;99.90;;;;;;5034101;28;20053;-70
2023/01/01 04:51:17;;;;;;;3.53;1.02;;;13.40;99.90;;;;;;5016509;28;20056;-71
2023/01/01 04:53:43;;;;;;;2.65;1.00;;;13.30;99.90;;;;;;5016380;28;20041;-71
2023/01/01 04:56:14;;;;;;;3.15;1.67;;;13.20;99.90;;;;;;5016459;28;20630;-71
2023/01/01 04:58:41;;;;;;;2.80;1.20;;;13.20;99.90;;;;;;5000229;28;20044;-71
2023/01/01 05:01:13;;;;;;;5.53;1.25;;;13.20;99.90;;;;;;5016209;28;20144;-70
2023/01/01 05:03:38;;;;;;;1.67;1.08;;;13.20;99.90;;;;;;5016257;28;20041;-70
2023/01/01 05:06:07;;;;;;;1.40;0.77;;;13.10;99.90;;;;;;5033727;28;20049;-71
2023/01/01 05:08:35;;;;;;;3.30;1.33;;;13.20;99.90;;;;;;5016048;28;20045;-71
2023/01/01 05:11:11;;;;;;;3.63;0.85;;;13.10;99.90;;;;;;5016427;28;20041;-71
2023/01/01 05:13:38;;;;;;;3.50;1.20;;;13.10;99.90;;;;;;5016042;28;20120;-71
2023/01/01 05:16:05;;;;;;;1.70;1.08;;;13.10;99.90;;;;;;5016298;28;20053;-71
2023/01/01 05:18:33;;;;;;;1.55;0.80;;;13.10;99.90;;;;;;5016580;28;20048;-71
2023/01/01 05:21:12;;;;;;;8.80;1.35;;;13.80;99.90;;;;;;5016225;28;20404;-71
2023/01/01 05:23:37;;;;;;;4.50;1.15;;;13.00;99.90;;;;;;4999679;28;20400;-71
2023/01/01 05:26:22;;;;;;;1.27;0.60;;;13.10;99.90;;;;;;5015878;28;20120;-71
2023/01/01 05:28:48;;;;;;;0.52;0.45;;;13.10;99.90;;;;;;5015984;28;20046;-71
2023/01/01 05:31:19;;;;;;;6.07;1.15;;;13.10;99.90;;;;;;5033687;28;20141;-71
2023/01/01 05:33:45;;;;;;;3.08;1.10;;;13.20;99.90;;;;;;5015762;28;20440;-71
2023/01/01 05:36:17;;;;;;;3.22;1.80;;;13.40;99.90;;;;;;5015616;28;20041;-71
2023/01/01 05:38:43;;;;;;;1.35;0.45;;;13.20;99.90;;;;;;5015905;28;20477;-71
2023/01/01 05:41:12;;;;;;;0.77;0.35;;;13.90;99.90;;;;;;5033304;28;20099;-71
2023/01/01 05:43:38;;;;;;;1.65;0.93;;;13.60;99.90;;;;;;5033438;28;20048;-71
2023/01/01 05:46:15;;;;;;;2.60;1.15;;;13.30;99.80;;;;;;5015824;28;20113;-71
2023/01/01 05:48:42;;;;;;;3.70;0.93;;;13.20;99.90;;;;;;5015357;28;20083;-71
2023/01/01 05:51:10;;;;;;;2.67;1.02;;;13.10;99.90;;;;;;5015656;28;20400;-71
2023/01/01 05:53:36;;;;;;;2.17;0.82;;;13.10;99.90;;;;;;5015376;28;20045;-71
2023/01/01 05:56:02;;;;;;;2.35;0.50;;;13.10;99.90;;;;;;4999043;28;20045;-71
2023/01/01 05:58:29;;;;;;;1.60;0.63;;;13.20;99.90;;;;;;4999002;28;20041;-70
2023/01/01 06:00:55;;;;;;;1.30;0.43;;;13.20;99.30;;;;;;4999003;28;20045;-70
2023/01/01 06:03:21;;;;;;;4.25;0.47;;;13.10;99.30;;;;;;5015188;28;20044;-71
2023/01/01 06:05:47;;;;;;;1.48;0.63;;;13.20;97.20;;;;;;4998779;28;20523;-71
2023/01/01 06:08:13;;;;;;;1.75;0.60;;;13.10;98.20;;;;;;5015355;28;20041;-71
2023/01/01 06:10:38;;;;;;;3.42;0.50;;;13.00;97.30;;;;;;5033040;28;20033;-71
2023/01/01 06:13:04;;;;;;;1.95;0.55;;;13.00;96.20;;;;;;5015180;28;20091;-71
2023/01/01 06:15:30;;;;;;;1.58;0.40;;;13.00;94.70;;;;;;5015192;28;20065;-71
2023/01/01 06:17:57;;;;;;;2.05;0.57;;;13.00;95.80;;;;;;5015074;28;20044;-71
2023/01/01 06:20:23;;;;;;;3.30;0.52;;;12.90;95.70;;;;;;5032803;28;20041;-71
2023/01/01 06:22:48;;;;;;;0.52;0.52;;;12.90;94.50;;;;;;5015086;28;20412;-70
2023/01/01 06:25:14;;;;;;;0.28;0.28;;;12.80;93.70;;;;;;5015026;28;20126;-72
2023/01/01 06:27:40;;;;;;;2.65;0.50;;;12.80;93.90;;;;;;5032631;28;20049;-71
2023/01/01 06:30:06;;;;;;;1.08;0.60;;;12.80;94.60;;;;;;4982391;28;20041;-70
2023/01/01 06:32:32;;;;;;;1.77;0.60;;;12.70;95.90;;;;;;5015003;28;20442;-72
2023/01/01 06:34:58;;;;;;;1.17;0.38;;;12.70;95.90;;;;;;5014970;28;20037;-70
2023/01/01 06:37:26;;;;;;;3.20;0.47;;;12.70;93.50;;;;;;5032840;28;20040;-70
2023/01/01 06:39:52;;;;;;;1.30;0.47;;;12.70;96.50;;;;;;5014856;28;20052;-70
2023/01/01 06:42:17;;;;;;;1.42;0.40;;;12.80;94.00;;;;;;5014895;28;20508;-70
2023/01/01 06:44:43;;;;;;;1.90;0.57;;;12.70;95.10;;;;;;5014855;28;20503;-70
2023/01/01 06:47:08;;;;;;;1.20;0.47;;;12.70;95.70;;;;;;5032506;28;20068;-70
2023/01/01 06:49:34;;;;;;;5.15;0.63;;;12.70;97.10;;;;;;5032410;28;20049;-70
2023/01/01 06:51:59;;;;;;;0.25;0.20;;;12.60;97.60;;;;;;5014805;28;20033;-72
2023/01/01 06:54:25;;;;;;;3.65;0.90;;;12.70;95.30;;;;;;5014738;28;20037;-71
2023/01/01 06:56:50;;;;;;;6.45;0.40;;;12.70;94.70;;;;;;5014755;28;20079;-70
2023/01/01 06:59:16;;;;;;;0.82;0.52;;;12.60;95.40;;;;;;5014731;28;20124;-71
2023/01/01 07:01:42;;;;;;;4.70;0.50;;;12.60;94.50;;;;;;5015017;28;20489;-71
2023/01/01 07:04:11;;;;;;;2.90;0.47;;;12.60;95.30;;;;;;5018021;28;20046;-73
2023/01/01 07:06:38;;;;;;;1.88;0.40;;;12.50;95.30;;;;;;5019194;28;20416;-71
2023/01/01 07:09:04;;;;;;;1.50;0.40;;;12.50;96.00;;;;;;5018732;28;20115;-72
2023/01/01 07:11:30;;;;;;;2.05;0.55;;;12.40;96.20;;;;;;5018804;28;20120;-71
2023/01/01 07:13:56;;;;;;;0.73;0.43;;;12.40;97.30;;;;;;5001980;28;20118;-72
2023/01/01 07:16:23;;;;;;;3.85;0.50;;;12.30;97.50;;;;;;5018138;28;20081;-72
2023/01/01 07:18:49;;;;;;;4.13;0.50;;;12.30;98.30;;;;;;5018286;28;20041;-71
2023/01/01 07:21:27;;;;;;;0.88;0.40;;;12.30;98.70;;;;;;5018174;28;20038;-70
2023/01/01 07:23:55;;;;;;;1.73;0.55;;;12.20;99.50;;;;;;5018433;28;20050;-71
2023/01/01 07:26:22;;;;;;;0.88;0.60;;;12.30;99.90;;;;;;5018108;28;20037;-74
2023/01/01 07:28:47;;;;;;;4.00;0.75;;;12.30;99.90;;;;;;5017969;28;20056;-75
2023/01/01 07:31:13;;;;;;;5.90;0.75;;;12.20;99.90;;;;;;5001672;28;20042;-73
2023/01/01 07:33:38;;;;;;;4.20;0.85;;;12.20;99.90;;;;;;5018119;28;20056;-71
2023/01/01 07:36:04;;;;;;;3.60;0.93;;;12.20;99.90;;;;;;5018115;28;20033;-72
2023/01/01 07:38:30;;;;;;;2.83;0.60;;;12.20;99.90;;;;;;5017702;28;20124;-72
2023/01/01 07:40:55;;;;;;;3.67;0.65;;;12.10;99.90;;;;;;5017837;28;20535;-71
2023/01/01 07:43:21;;;;;;;1.98;0.60;;;12.10;99.90;;;;;;5018015;28;20481;-71
2023/01/01 07:45:46;;;;;;;1.60;0.60;;;12.10;99.90;;;;;;5017973;28;20044;-76
2023/01/01 07:48:14;;;;;;;7.65;1.05;;;12.20;99.90;;;;;;5017586;28;20045;-72
2023/01/01 07:50:40;;;;;;;7.47;1.27;;;12.10;99.90;;;;;;5001204;28;20424;-71
2023/01/01 07:53:06;;;;;;;1.08;0.60;;;12.20;99.90;;;;;;5035207;28;20041;-71
2023/01/01 07:55:33;;;;;;;2.55;0.93;;;12.10;99.90;;;;;;5035285;28;20042;-69
2023/01/01 07:57:59;;;;;;;1.58;0.65;;;12.20;99.90;;;;;;5017830;28;20037;-69
2023/01/01 08:00:25;;;;;;;2.67;0.80;;;12.10;99.90;;;;;;5035440;28;20037;-69
2023/01/01 08:02:50;;;;;;;2.88;0.82;;;12.10;99.90;;;;;;5035403;28;20067;-71
2023/01/01 08:05:16;;;;;;;3.35;1.00;;;12.10;99.90;;;;;;5017171;28;20148;-71
2023/01/01 08:07:49;;;;;;;5.53;1.00;;;12.10;99.90;;;;;;5017205;28;20054;-73
2023/01/01 08:10:16;;;;;;;1.65;0.50;;;12.10;99.90;;;;;;5000700;28;20037;-72
2023/01/01 08:12:42;;;;;;;4.45;1.08;;;12.00;99.90;;;;;;5017047;28;20405;-73
2023/01/01 08:15:09;;;;;;;1.48;0.90;;;12.00;99.90;;;;;;5015951;28;20033;-72
2023/01/01 08:17:35;;;;;;;5.25;0.85;;;11.90;99.90;;;;;;5017049;28;20124;-70
2023/01/01 08:20:00;;;;;;;3.30;1.38;;;11.90;99.90;;;;;;5017305;28;20075;-69
2023/01/01 08:22:26;;;;;;;2.97;1.13;;;12.00;99.90;;;;;;5035014;28;20045;-70
2023/01/01 08:24:52;;;;;;;4.75;0.90;;;11.90;99.90;;;;;;5034995;28;20077;-71
2023/01/01 08:27:17;;;;;;;3.65;1.23;;;11.90;99.90;;;;;;5016722;28;20405;-69
2023/01/01 08:29:43;;;;;;;3.58;0.50;;;11.90;99.90;;;;;;5033905;28;20041;-70
2023/01/01 08:32:13;;;;;;;5.93;1.40;;;12.00;99.90;;;;;;5033819;28;20041;-71
2023/01/01 08:34:39;;;;;;;3.88;0.60;;;12.00;99.90;;;;;;5015829;28;20048;-70
2023/01/01 08:37:05;;;;;;;3.65;0.85;;;12.00;99.90;;;;;;5016037;28;20082;-70
2023/01/01 08:39:31;;;;;;;6.97;0.98;;;12.00;99.90;;;;;;5033475;28;20077;-71
2023/01/01 08:41:56;;;;;;;2.78;0.82;;;11.90;99.90;;;;;;5015424;28;20081;-69
2023/01/01 08:44:22;;;;;;;1.67;0.65;;;11.90;99.90;;;;;;5015583;28;20041;-70
2023/01/01 08:46:48;;;;;;;6.10;1.50;;;11.90;99.90;;;;;;5015474;28;20733;-70
2023/01/01 08:49:13;;;;;;;4.32;0.85;;;11.90;99.90;;;;;;5033264;28;20045;-70
2023/01/01 08:51:39;;;;;;;1.60;0.63;;;11.90;99.90;;;;;;5033465;28;20046;-70
2023/01/01 08:54:05;;;;;;;2.40;1.10;;;11.90;99.90;;;;;;5033358;28;20439;-70
2023/01/01 08:56:32;;;;;;;3.95;0.70;;;12.60;99.90;;;;;;5015492;28;20120;-70
2023/01/01 08:58:57;;;;;;;1.75;0.60;;;11.90;99.90;;;;;;5033075;28;20144;-70
2023/01/01 09:01:26;;;;;;;3.28;0.63;;;11.80;99.90;;;;;;5033311;28;20529;-70
2023/01/01 09:03:52;;;;;;;2.50;0.90;;;11.90;99.90;;;;;;5015215;28;20092;-71
2023/01/01 09:06:18;;;;;;;9.15;1.27;;;11.90;99.90;;;;;;5014998;28;20080;-70
2023/01/01 09:08:43;;;;;;;1.48;0.75;;;11.90;99.90;;;;;;5015092;28;20516;-70
2023/01/01 09:11:24;;;;;;;2.33;0.60;;;11.80;99.90;;;;;;5015033;28;20045;-69
2023/01/01 09:13:50;;;;;;;2.55;0.45;;;11.80;99.90;;;;;;5015318;28;20037;-70
2023/01/01 09:16:15;;;;;;;6.35;0.90;;;11.80;99.90;;;;;;5014941;28;20091;-73
2023/01/01 09:18:41;;;;;;;4.90;0.93;;;11.80;99.90;;;;;;5014860;28;20038;-70
2023/01/01 09:21:06;;;;;;;1.67;0.75;;;11.80;99.90;;;;;;5014732;28;20042;-71
2023/01/01 09:23:32;;;;;;;1.70;0.57;;;11.80;99.90;;;;;;5015004;28;20244;-73
2023/01/01 09:26:06;;;;;;;3.28;0.70;;;11.90;99.90;;;;;;5014671;28;20033;-71
2023/01/01 09:28:32;;;;;;;2.45;0.57;;;11.90;99.90;;;;;;5014747;28;20053;-70
2023/01/01 09:30:57;;;;;;;3.20;0.90;;;11.90;99.90;;;;;;5014743;28;20045;-72
2023/01/01 09:33:23;;;;;;;4.25;0.70;;;11.90;99.90;;;;;;5014602;28;20050;-69
2023/01/01 09:35:49;;;;;;;6.53;1.05;;;11.80;99.90;;;;;;5032632;28;20044;-69
2023/01/01 09:38:15;;;;;;;2.83;0.85;;;11.80;99.90;;;;;;5032563;28;20046;-70
2023/01/01 09:40:58;;;;;;;7.55;1.02;;;12.20;99.90;;;;;;5032573;28;20066;-70
2023/01/01 09:43:38;;;;;;;2.58;0.93;;;11.90;99.90;;;;;;5014781;28;20099;-69
2023/01/01 09:46:09;;;;;;;1.73;0.70;;;11.90;99.90;;;;;;5032428;28;20041;-71
2023/01/01 09:48:40;;;;;;;;;;;11.90;99.90;;;;;;5014758;28;20106;-72
2023/01/01 09:51:14;;;;;;;1.90;0.68;;;11.90;99.90;;;;;;5031981;28;19952;-72
2023/01/01 09:53:44;;;;;;;9.00;1.00;;;11.90;99.90;;;;;;4998296;28;20183;-72
2023/01/01 09:56:21;;;;;;;8.73;1.88;;;11.90;99.90;;;;;;4998026;28;20034;-68
2023/01/01 09:58:47;;;;;;;9.55;1.67;;;11.90;99.90;;;;;;5032215;28;20029;-68
2023/01/01 10:01:32;;;;;;;10.10;3.08;;;11.90;99.90;;;;;;5032193;28;20112;-68
2023/01/01 10:04:16;;;;;;;0.77;0.68;;;11.90;99.90;;;;;;5032196;28;20397;-68
2023/01/01 10:06:55;;;;;;;4.68;1.05;;;11.90;99.90;;;;;;5027175;28;20050;-68
2023/01/01 10:09:49;;;;;;;4.75;1.15;;;11.90;99.90;;;;;;5010645;28;20053;-69
2023/01/01 10:12:44;;;;;;;5.35;0.85;;;11.90;99.90;;;;;;5010794;28;20436;-68
2023/01/01 10:15:22;;;;;;;3.58;1.63;;;11.90;99.90;;;;;;5012325;28;20084;-68
2023/01/01 10:17:52;;;;;;;4.95;0.73;;;11.80;99.90;;;;;;5010947;28;20096;-69
2023/01/01 10:20:35;;;;;;;4.30;1.20;;;11.80;99.90;;;;;;5010921;28;20045;-69
2023/01/01 10:23:18;;;;;;;9.60;0.90;;;11.80;99.90;;;;;;5012330;28;20053;-69
2023/01/01 10:25:44;;;;;;;8.95;0.85;;;11.70;99.90;;;;;;5012292;28;20042;-72
2023/01/01 10:28:42;;;;;;;4.50;1.13;;;11.70;99.90;;;;;;5010656;28;20041;-70
2023/01/01 10:31:24;;;;;;;2.58;0.68;;;11.70;99.90;;;;;;5011301;28;20108;-70
2023/01/01 10:33:49;;;;;;;2.83;0.93;;;11.70;99.90;;;;;;5012091;28;20121;-71
2023/01/01 10:36:18;;;;;;;1.70;0.70;;;11.70;99.90;;;;;;5010508;28;20125;-68
2023/01/01 10:38:44;;;;;;;2.22;0.60;;;11.70;99.90;;;;;;5014921;28;20119;-70
2023/01/01 10:41:11;;;;;;;0.65;0.32;;;11.80;99.90;;;;;;4998232;28;20046;-70
2023/01/01 10:43:38;;;;;;;2.08;0.63;;;11.80;99.90;;;;;;5014454;28;20045;-71
2023/01/01 10:46:04;;;;;;;2.08;0.77;;;11.80;99.90;;;;;;5014479;28;20079;-70
2023/01/01 10:48:31;;;;;;;3.45;0.70;;;11.90;99.90;;;;;;5014250;28;20057;-70
2023/01/01 10:51:00;;;;;;;3.47;0.70;;;11.80;99.90;;;;;;5014365;28;20058;-70
2023/01/01 10:53:38;;;;;;;3.70;0.70;;;11.90;99.70;;;;;;5016246;28;20049;-69
2023/01/01 10:56:14;;;;;;;1.35;0.50;;;12.00;99.90;;;;;;5014360;28;20172;-70
2023/01/01 10:58:45;;;;;;;2.65;0.77;;;12.00;99.80;;;;;;4997753;28;20097;-69
2023/01/01 11:01:32;;;;;;;1.40;0.50;;;12.00;99.30;;;;;;5015714;28;20042;-69
2023/01/01 11:04:12;;;;;;;6.78;0.77;;;12.00;99.80;;;;;;5015864;28;20060;-70
2023/01/01 11:06:40;;;;;;;2.10;0.30;;;12.00;99.40;;;;;;5013890;28;20053;-70
2023/01/01 11:09:30;;;;;;;4.43;0.57;;;11.90;99.90;;;;;;5015643;28;20398;-70
2023/01/01 11:12:02;;;;;;;2.10;0.50;;;12.00;99.10;;;;;;5015324;28;20489;-69
2023/01/01 11:14:34;;;;;;;2.60;0.50;;;12.00;98.20;;;;;;5015595;28;20038;-69
2023/01/01 11:17:00;;;;;;;2.22;0.57;;;12.00;98.50;;;;;;5013917;28;20117;-70
2023/01/01 11:19:38;;;;;;;4.78;0.68;;;12.00;99.10;;;;;;5013961;28;20466;-70
2023/01/01 11:22:05;;;;;;;4.50;0.90;;;12.00;98.70;;;;;;5013840;28;20133;-69
2023/01/01 11:24:34;;;;;;;5.30;0.80;;;12.00;98.20;;;;;;5015362;28;20057;-69
2023/01/01 11:27:26;;;;;;;3.75;0.60;;;12.10;97.90;;;;;;4997495;28;20409;-70
2023/01/01 11:30:18;;;;;;;2.85;0.60;;;12.00;98.80;;;;;;5009189;28;20468;-69
2023/01/01 11:32:43;;;;;;;2.30;0.38;;;12.00;97.10;;;;;;5014078;28;20452;-75
2023/01/01 11:35:18;;;;;;;4.80;1.00;;;12.10;97.30;;;;;;5013579;28;20121;-69
2023/01/01 11:37:45;;;;;;;9.40;1.33;;;12.10;97.70;;;;;;5015103;28;20041;-73
2023/01/01 11:40:21;;;;;;;2.47;0.80;;;12.60;97.70;;;;;;5013566;28;20038;-71
2023/01/01 11:42:58;;;;;;;1.23;0.57;;;12.10;98.10;;;;;;5015142;28;20069;-70
2023/01/01 11:45:41;;;;;;;6.90;0.82;;;12.20;98.80;;;;;;5014818;28;20041;-68
2023/01/01 11:48:16;;;;;;;4.00;0.57;;;12.20;98.40;;;;;;5014700;28;20064;-68
2023/01/01 11:50:49;;;;;;;2.42;0.63;;;12.20;97.60;;;;;;5014651;28;20050;-68
2023/01/01 11:53:21;;;;;;;1.63;0.88;;;12.20;97.30;;;;;;5013290;28;20038;-69
2023/01/01 11:56:06;;;;;;;3.58;0.65;;;12.30;97.00;;;;;;5014537;28;20045;-70
2023/01/01 11:58:35;;;;;;;9.88;1.60;;;12.30;96.60;;;;;;5013325;28;20116;-69
2023/01/01 12:01:07;;;;;;;5.93;0.88;;;12.40;97.50;;;;;;5013285;28;20114;-69
2023/01/01 12:03:59;;;;;;;4.22;0.90;;;12.50;97.50;;;;;;5013403;28;20049;-68
2023/01/01 12:06:40;;;;;;;2.35;0.52;;;12.60;96.40;;;;;;5013022;28;20577;-69
2023/01/01 12:09:19;;;;;;;4.25;0.73;;;12.90;94.00;;;;;;5013461;28;20033;-71
2023/01/01 12:12:00;;;;;;;1.88;0.60;;;13.10;92.10;;;;;;5013056;28;20045;-70
2023/01/01 12:14:45;;;;;;;;;;;13.40;91.90;;;;;;5015108;28;20389;-69
2023/01/01 12:17:25;;;;;;;1.48;0.75;;;13.50;90.30;;;;;;5014484;28;19987;-69
2023/01/01 12:20:24;;;;;;;5.90;1.25;;;13.40;91.50;;;;;;5014483;28;20117;-69
2023/01/01 12:22:50;;;;;;;13.32;1.33;;;13.20;90.60;;;;;;5013030;28;20536;-68
2023/01/01 12:25:18;;;;;;;4.68;0.80;;;13.10;91.80;;;;;;5014332;28;20077;-68
2023/01/01 12:28:11;;;;;;;2.65;0.85;;;12.90;94.00;;;;;;5013924;28;20045;-68
2023/01/01 12:30:52;;;;;;;5.70;1.10;;;12.80;94.60;;;;;;5014208;28;20441;-68
2023/01/01 12:33:36;;;;;;;2.25;0.55;;;12.70;95.30;;;;;;5012569;28;20038;-72
2023/01/01 12:36:28;;;;;;;5.68;0.77;;;12.60;96.50;;;;;;5012571;28;20052;-68
2023/01/01 12:38:54;;;;;;;1.17;0.40;;;12.60;96.50;;;;;;5012732;28;20493;-73
2023/01/01 12:41:35;;;;;;;2.13;0.50;;;12.50;97.60;;;;;;5013141;28;20037;-76
2023/01/01 12:44:04;;;;;;;4.30;0.43;;;12.60;98.00;;;;;;5012379;28;20401;-69
2023/01/01 12:46:50;;;;;;;1.33;0.63;;;12.50;97.10;;;;;;5012236;28;20096;-71
2023/01/01 12:49:35;;;;;;;4.70;0.80;;;12.40;98.40;;;;;;5013421;28;20038;-68
2023/01/01 12:52:20;;;;;;;4.18;1.10;;;12.40;97.20;;;;;;5013830;28;20525;-68
2023/01/01 12:55:04;;;;;;;1.75;0.60;;;12.40;98.10;;;;;;5013780;28;20045;-71
2023/01/01 12:57:37;;;;;;;1.10;0.55;;;12.40;98.50;;;;;;5013655;28;20455;-67
2023/01/01 13:00:12;;;;;;;4.78;0.60;;;12.40;98.90;;;;;;5013018;28;20044;-66
2023/01/01 13:02:46;;;;;;;4.20;0.88;;;12.30;98.40;;;;;;5014528;28;20042;-66
2023/01/01 13:05:22;;;;;;;6.55;1.27;;;12.30;97.90;;;;;;5029420;28;20046;-68
2023/01/01 13:07:53;;;;;;;2.78;0.80;;;12.30;97.90;;;;;;5014480;28;20542;-66